Time;durP1;ratioP1;P1;durP2;ratioP2;P2;SDS_P1;SDS_P2;PMS_P1;PMS_P2;Temp;Humidity;BMP_temperature;BMP_pressure;BME280_temperature;BME280_humidity;BME280_pressure;Samples;Min_cycle;Max_cycle;Signal;HPM_P1;HPM_P2
2022/11/11 00:01:15;;;;;;;1.45;0.50;;;;;;;14.94;88.22;100316.41;5009638;28;20045;-47
2022/11/11 00:03:42;;;;;;;9.90;1.83;;;;;;;14.92;88.04;100300.06;5006294;28;20054;-45
2022/11/11 00:06:12;;;;;;;2.83;0.43;;;;;;;14.92;88.00;100319.59;5006362;28;20050;-45
2022/11/11 00:08:39;;;;;;;2.42;0.40;;;;;;;14.91;88.04;100309.59;5011294;28;20046;-45
2022/11/11 00:11:10;;;;;;;4.05;0.73;;;;;;;14.91;88.22;100317.16;5006438;28;20758;-46
2022/11/11 00:13:38;;;;;;;1.52;0.40;;;;;;;14.90;88.15;100316.38;5009879;28;20060;-45
2022/11/11 00:16:08;;;;;;;3.17;1.00;;;;;;;14.93;87.97;100303.66;5011542;28;20061;-45
2022/11/11 00:27:09;;;;;;;2.22;0.45;;;;;;;14.91;87.72;100317.97;5003994;28;20050;-46
2022/11/11 00:29:37;;;;;;;2.13;0.43;;;;;;;14.91;87.66;100323.53;5011720;28;20124;-47
2022/11/11 00:32:26;;;;;;;0.73;0.20;;;;;;;14.91;87.72;100329.13;5011110;28;20411;-48
2022/11/11 00:37:41;;;;;;;2.72;1.30;;;;;;;14.92;87.62;100322.38;5017410;28;20508;-45
2022/11/11 00:40:10;;;;;;;1.83;0.63;;;;;;;14.92;87.59;100319.59;5011256;28;20100;-46
2022/11/11 00:42:36;;;;;;;2.30;0.40;;;;;;;14.93;87.64;100323.19;5026092;28;20384;-46
2022/11/11 00:45:04;;;;;;;3.30;0.40;;;;;;;14.93;87.73;100323.94;5010347;28;20048;-46
2022/11/11 00:53:17;;;;;;;2.10;0.47;;;;;;;14.92;87.34;100302.84;5002632;28;20141;-44
2022/11/11 00:55:51;;;;;;;1.50;0.75;;;;;;;14.92;87.45;100307.63;5013383;28;20046;-44
2022/11/11 00:58:18;;;;;;;3.45;0.52;;;;;;;14.91;87.45;100306.81;5008150;28;20050;-46
2022/11/11 01:00:46;;;;;;;3.92;0.93;;;;;;;14.90;87.42;100304.44;5008123;28;20396;-46
2022/11/11 01:03:12;;;;;;;3.60;0.90;;;;;;;14.88;87.47;100290.88;5007649;28;20050;-46
2022/11/11 01:05:39;;;;;;;8.43;0.90;;;;;;;14.86;87.63;100307.19;5009131;28;20045;-48
2022/11/11 01:08:06;;;;;;;2.88;0.80;;;;;;;14.87;87.50;100311.56;4998790;28;20038;-45
2022/11/11 01:10:38;;;;;;;3.97;0.85;;;;;;;14.85;87.42;100291.63;5011169;28;20056;-45
2022/11/11 01:13:13;;;;;;;2.80;0.68;;;;;;;14.87;87.40;100303.22;5006242;28;20519;-45
2022/11/11 01:15:41;;;;;;;9.00;1.35;;;;;;;14.85;87.26;100288.84;5008526;28;20092;-45
2022/11/11 01:18:10;;;;;;;1.45;0.57;;;;;;;14.83;87.16;100299.56;5008630;28;20164;-45
2022/11/11 01:20:37;;;;;;;3.78;1.42;;;;;;;14.83;87.19;100310.72;5003956;28;20066;-49
2022/11/11 01:23:06;;;;;;;4.55;0.77;;;;;;;14.82;87.12;100300.78;5008179;28;20054;-47
2022/11/11 01:25:34;;;;;;;3.72;0.75;;;;;;;14.82;87.11;100308.34;5009748;28;20056;-45
2022/11/11 01:28:03;;;;;;;2.22;0.70;;;;;;;14.81;86.94;100313.09;5011349;28;20061;-45
2022/11/11 01:30:31;;;;;;;2.00;0.82;;;;;;;14.82;86.97;100314.72;5010438;28;20053;-45
2022/11/11 01:32:59;;;;;;;4.72;0.65;;;;;;;14.81;87.00;100299.16;5009721;28;20492;-45
2022/11/11 01:35:26;;;;;;;2.60;0.50;;;;;;;14.81;87.04;100310.31;5003640;28;20137;-47
2022/11/11 01:37:53;;;;;;;3.25;0.60;;;;;;;14.81;87.02;100306.72;5007809;28;20060;-48
2022/11/11 01:40:19;;;;;;;4.15;1.33;;;;;;;14.78;87.09;100313.88;5007724;28;20430;-46
2022/11/11 01:43:13;;;;;;;4.20;1.00;;;;;;;14.78;87.12;100313.06;5008455;28;20052;-47
2022/11/11 01:45:50;;;;;;;1.98;0.82;;;;;;;14.76;87.17;100327.41;5007335;28;20054;-46
2022/11/11 01:51:31;;;;;;;3.70;0.88;;;;;;;14.76;87.05;100323.81;5005805;28;20088;-45
2022/11/11 01:54:01;;;;;;;5.00;0.95;;;;;;;14.73;87.11;100319.78;5007409;28;20514;-46
2022/11/11 01:56:29;;;;;;;5.68;1.30;;;;;;;14.71;87.28;100322.16;5006397;28;21136;-45
2022/11/11 01:59:00;;;;;;;2.72;0.82;;;;;;;14.69;87.28;100321.75;5009188;28;20477;-45
2022/11/11 02:01:27;;;;;;;3.90;1.00;;;;;;;14.69;87.23;100332.91;5012633;28;20503;-45
2022/11/11 02:06:42;;;;;;;3.60;0.68;;;;;;;14.67;87.23;100323.31;4996478;28;20463;-48
2022/11/11 02:09:10;;;;;;;1.75;0.43;;;;;;;14.67;87.35;100326.88;4999897;28;20074;-45
2022/11/11 02:14:38;;;;;;;2.90;0.90;;;;;;;14.67;87.25;100321.31;5009376;28;20038;-44
2022/11/11 02:17:09;;;;;;;2.00;0.70;;;;;;;14.69;87.42;100332.91;5004014;28;20108;-45
2022/11/11 02:19:47;;;;;;;1.90;0.65;;;;;;;14.71;87.43;100335.28;5009886;28;20100;-47
2022/11/11 02:22:27;;;;;;;4.47;0.98;;;;;;;14.73;87.35;100335.72;5009527;28;20104;-45
2022/11/11 02:24:55;;;;;;;5.05;0.82;;;;;;;14.73;87.28;100330.94;5007021;28;20045;-45
2022/11/11 02:27:25;;;;;;;3.88;0.70;;;;;;;14.75;87.24;100331.34;5008401;28;20052;-48
2022/11/11 02:29:54;;;;;;;5.70;1.10;;;;;;;14.76;87.21;100326.59;5009576;28;20042;-45
2022/11/11 02:32:21;;;;;;;7.13;2.95;;;;;;;14.78;87.26;100327.00;5010564;28;20046;-45
2022/11/11 02:34:48;;;;;;;6.53;1.95;;;;;;;14.79;87.18;100336.97;5008960;28;20054;-46
2022/11/11 02:37:18;;;;;;;3.35;1.20;;;;;;;14.80;87.43;100339.38;5009006;28;20073;-45
2022/11/11 02:39:48;;;;;;;4.43;0.75;;;;;;;14.83;87.24;100346.16;5008131;28;20038;-50
2022/11/11 02:42:30;;;;;;;7.40;1.23;;;;;;;14.85;87.02;100318.72;5008944;28;20058;-45
2022/11/11 02:44:58;;;;;;;2.30;0.93;;;;;;;14.86;87.16;100335.06;5008189;28;20038;-45
2022/11/11 02:47:25;;;;;;;3.45;0.90;;;;;;;14.86;87.18;100311.94;5008988;28;20099;-45
2022/11/11 02:49:53;;;;;;;5.22;1.27;;;;;;;14.86;87.27;100337.84;5014635;28;20073;-45
2022/11/11 02:52:20;;;;;;;4.05;0.80;;;;;;;14.86;87.26;100326.69;5002955;28;20045;-45
2022/11/11 02:54:48;;;;;;;1.27;0.70;;;;;;;14.87;87.17;100331.09;4994839;28;20050;-45
2022/11/11 02:57:15;;;;;;;4.93;1.17;;;;;;;14.88;87.12;100341.03;5008872;28;20408;-49
2022/11/11 02:59:42;;;;;;;5.80;1.10;;;;;;;14.89;87.29;100342.66;5007213;28;20050;-45
2022/11/11 03:02:09;;;;;;;8.85;1.13;;;;;;;14.89;87.23;100337.06;5058679;22;20054;-43
2022/11/11 03:04:37;;;;;;;3.63;1.10;;;;;;;14.90;87.18;100333.13;5008926;28;20415;-43
2022/11/11 03:07:04;;;;;;;4.72;1.30;;;;;;;14.89;87.25;100331.50;5009256;28;20085;-43
2022/11/11 03:09:31;;;;;;;9.48;1.55;;;;;;;14.89;87.30;100319.53;5007846;28;20049;-42
2022/11/11 03:11:58;;;;;;;4.30;1.08;;;;;;;14.88;87.25;100329.88;5008376;28;20042;-42
2022/11/11 03:14:25;;;;;;;5.47;1.10;;;;;;;14.88;87.19;100321.53;4998240;28;20052;-43
2022/11/11 03:19:37;;;;;;;14.93;1.15;;;;;;;14.87;87.35;100311.56;5002160;28;20053;-42
2022/11/11 03:22:04;;;;;;;8.07;1.42;;;;;;;14.86;87.29;100315.53;5008477;28;20046;-42
2022/11/11 03:27:36;;;;;;;7.93;0.93;;;;;;;14.84;87.40;100306.78;5007194;28;20033;-46
2022/11/11 03:30:03;;;;;;;8.23;1.25;;;;;;;14.84;87.35;100298.41;5004064;28;20046;-49
2022/11/11 03:32:30;;;;;;;4.32;1.23;;;;;;;14.85;87.14;100308.34;5006896;28;20391;-41
2022/11/11 03:34:57;;;;;;;2.55;1.38;;;;;;;14.85;87.11;100313.16;5006756;28;20192;-43
2022/11/11 03:40:09;;;;;;;5.50;0.75;;;;;;;14.85;86.82;100302.00;5006940;28;20093;-47
2022/11/11 03:42:36;;;;;;;6.63;1.85;;;;;;;14.85;86.62;100291.63;5008678;28;20049;-43
2022/11/11 03:45:03;;;;;;;3.63;0.57;;;;;;;14.83;86.72;100299.56;5014642;28;20419;-42
2022/11/11 03:47:29;;;;;;;4.55;0.85;;;;;;;14.83;86.55;100302.38;5006640;28;20053;-45
2022/11/11 03:49:56;;;;;;;2.92;0.43;;;;;;;14.83;86.32;100291.22;5006754;28;20053;-44
2022/11/11 03:52:23;;;;;;;1.70;0.73;;;;;;;14.83;86.14;100309.91;5007466;28;20038;-47
2022/11/11 03:54:49;;;;;;;2.85;1.15;;;;;;;14.82;86.21;100298.00;5008897;28;20046;-42
2022/11/11 03:57:31;;;;;;;1.75;0.20;;;;;;;14.82;85.87;100289.63;5011987;28;20046;-43
2022/11/11 03:59:58;;;;;;;1.23;0.47;;;;;;;14.84;85.75;100315.13;5010791;28;20507;-42
2022/11/11 04:10:42;;;;;;;1.05;0.40;;;;;;;14.79;85.30;100303.53;5011038;28;20053;-42
2022/11/11 04:16:06;;;;;;;1.05;0.20;;;;;;;14.75;85.22;100323.00;4999756;28;20088;-47
2022/11/11 04:26:57;;;;;;;1.98;0.45;;;;;;;14.75;84.69;100325.78;5009434;28;20062;-43
2022/11/11 04:29:29;;;;;;;1.23;0.20;;;;;;;14.74;84.77;100335.34;5009640;28;20515;-42
2022/11/11 04:34:51;;;;;;;1.58;0.40;;;;;;;14.75;84.78;100359.22;5017064;28;20073;-43
2022/11/11 04:37:19;;;;;;;0.68;0.15;;;;;;;14.78;84.77;100350.09;5006459;28;20076;-46
2022/11/11 04:42:32;;;;;;;1.38;0.25;;;;;;;14.82;84.62;100362.09;5010548;28;20065;-43
2022/11/11 04:48:00;;;;;;;1.70;0.30;;;;;;;14.83;84.57;100360.09;5005930;28;20046;-42
2022/11/11 04:50:40;;;;;;;1.50;0.45;;;;;;;14.84;84.37;100365.28;5007836;28;20058;-44
2022/11/11 04:53:10;;;;;;;1.30;0.43;;;;;;;14.85;84.38;100347.38;5024440;28;20057;-42
2022/11/11 04:58:24;;;;;;;2.10;0.40;;;;;;;14.87;84.06;100356.19;5004105;28;20046;-48
2022/11/11 05:00:51;;;;;;;0.73;0.30;;;;;;;14.88;83.83;100366.13;5008169;28;20042;-42
2022/11/11 05:03:20;;;;;;;2.50;0.40;;;;;;;14.89;83.77;100358.56;4998068;28;20061;-43
2022/11/11 05:08:54;;;;;;;2.55;0.57;;;;;;;14.88;83.56;100352.19;4999558;28;20054;-43
2022/11/11 05:11:35;;;;;;;8.68;1.63;;;;;;;14.89;83.46;100364.94;5007675;28;20137;-43
2022/11/11 05:22:28;;;;;;;7.70;1.48;;;;;;;14.90;83.02;100372.13;5004640;28;20041;-43
2022/11/11 05:27:41;;;;;;;7.95;2.08;;;;;;;14.92;82.59;100380.09;5000877;28;20046;-41
2022/11/11 05:30:11;;;;;;;7.68;2.38;;;;;;;14.93;82.77;100390.84;5008838;28;20042;-43
2022/11/11 05:32:38;;;;;;;8.55;2.15;;;;;;;14.94;82.45;100389.69;5001981;28;20052;-47
2022/11/11 05:35:06;;;;;;;5.60;1.80;;;;;;;14.94;82.36;100367.38;5001613;28;20054;-50
2022/11/11 05:37:33;;;;;;;9.25;2.80;;;;;;;14.97;82.27;100372.19;5007343;28;20061;-42
2022/11/11 05:39:59;;;;;;;7.68;1.45;;;;;;;14.98;82.13;100384.97;5009500;28;20434;-46
2022/11/11 05:42:26;;;;;;;7.30;1.45;;;;;;;15.00;82.14;100379.78;5010831;28;20077;-44
2022/11/11 05:44:53;;;;;;;8.68;1.92;;;;;;;15.01;82.06;100388.97;5004077;28;20049;-42
2022/11/11 05:47:20;;;;;;;9.25;2.72;;;;;;;15.02;82.02;100396.94;5008078;28;20041;-43
2022/11/11 05:49:47;;;;;;;11.95;2.13;;;;;;;15.02;82.00;100396.13;5009122;28;20038;-45
2022/11/11 05:52:15;;;;;;;9.05;2.20;;;;;;;15.01;81.95;100417.63;5008478;28;20045;-44
2022/11/11 05:54:43;;;;;;;9.35;1.63;;;;;;;15.02;81.99;100402.50;5009979;28;20093;-42
2022/11/11 05:57:10;;;;;;;7.18;1.60;;;;;;;15.03;81.95;100412.50;5007658;28;20061;-44
2022/11/11 05:59:36;;;;;;;10.30;2.30;;;;;;;15.02;82.06;100408.09;5010299;28;20038;-42
2022/11/11 06:02:03;;;;;;;15.38;2.33;;;;;;;15.02;82.04;100404.50;5006987;28;20491;-43
2022/11/11 06:04:30;;;;;;;6.45;2.00;;;;;;;15.01;82.07;100406.47;5009819;28;20479;-44
2022/11/11 06:06:57;;;;;;;7.68;1.75;;;;;;;15.03;82.02;100425.63;4998441;28;20042;-43
2022/11/11 06:09:24;;;;;;;8.88;2.05;;;;;;;15.02;81.89;100418.44;5009586;28;20053;-48
2022/11/11 06:11:50;;;;;;;11.07;1.65;;;;;;;15.03;81.94;100415.28;5007435;28;20064;-47
2022/11/11 06:14:17;;;;;;;14.73;3.00;;;;;;;15.04;81.87;100410.47;5003799;28;20510;-43
2022/11/11 06:16:44;;;;;;;9.77;1.65;;;;;;;15.05;81.66;100429.63;5012120;28;20068;-44
2022/11/11 06:19:10;;;;;;;12.85;2.00;;;;;;;15.08;81.43;100431.66;5007144;28;20050;-44
2022/11/11 06:24:23;;;;;;;10.70;1.90;;;;;;;15.11;81.26;100416.13;5006823;28;20045;-43
2022/11/11 06:26:53;;;;;;;9.00;1.90;;;;;;;15.12;81.24;100424.09;4992666;28;20494;-46
2022/11/11 06:29:20;;;;;;;9.82;2.15;;;;;;;15.14;81.11;100415.38;4996097;28;20046;-43
2022/11/11 06:31:46;;;;;;;7.32;1.90;;;;;;;15.13;80.96;100417.34;5007918;28;20054;-43
2022/11/11 06:34:13;;;;;;;10.05;2.17;;;;;;;15.15;80.90;100414.97;5012999;28;20053;-43
2022/11/11 06:36:40;;;;;;;11.25;2.40;;;;;;;15.15;80.90;100411.38;5009210;28;20492;-43
2022/11/11 06:39:06;;;;;;;9.50;1.77;;;;;;;15.13;80.82;100409.00;5007076;28;20061;-42
2022/11/11 06:41:33;;;;;;;18.33;2.33;;;;;;;15.14;80.74;100405.00;5007876;28;20488;-46
2022/11/11 06:44:00;;;;;;;12.30;2.72;;;;;;;15.15;80.61;100391.88;5007062;28;20060;-42
2022/11/11 06:46:26;;;;;;;10.05;2.05;;;;;;;15.14;80.50;100399.44;5008433;28;20136;-43
2022/11/11 06:48:53;;;;;;;8.15;1.75;;;;;;;15.15;80.44;100395.47;5007307;28;20041;-43
2022/11/11 06:51:20;;;;;;;23.67;2.83;;;;;;;15.17;80.35;100401.44;5014078;28;20049;-44
2022/11/11 06:53:46;;;;;;;10.27;2.17;;;;;;;15.15;80.25;100395.47;5004688;28;20034;-42
2022/11/11 06:56:13;;;;;;;7.47;1.55;;;;;;;15.16;80.34;100390.69;5001204;28;20065;-45
2022/11/11 06:58:40;;;;;;;8.68;1.77;;;;;;;15.16;80.17;100382.31;5002972;28;20434;-43
2022/11/11 07:01:08;;;;;;;14.43;2.72;;;;;;;15.16;79.82;100402.66;5004335;28;20061;-44
2022/11/11 07:03:35;;;;;;;4.65;1.50;;;;;;;15.18;79.83;100400.28;5006157;28;20443;-42
2022/11/11 07:06:04;;;;;;;10.80;2.55;;;;;;;15.18;79.47;100380.75;5008673;28;20049;-43
2022/11/11 07:08:31;;;;;;;10.27;1.63;;;;;;;15.22;79.33;100372.44;5010016;28;20060;-44
2022/11/11 07:10:58;;;;;;;10.27;2.08;;;;;;;15.23;79.18;100396.31;5009102;28;20140;-43
2022/11/11 07:13:32;;;;;;;12.55;3.95;;;;;;;15.22;79.25;100389.94;5008284;28;20042;-42
2022/11/11 07:15:59;;;;;;;7.00;2.40;;;;;;;15.22;79.12;100392.72;5001495;28;20049;-44
2022/11/11 07:18:26;;;;;;;10.07;1.50;;;;;;;15.23;78.98;100382.38;5005720;28;20042;-47
2022/11/11 07:20:53;;;;;;;8.85;2.35;;;;;;;15.22;78.91;100392.72;5007625;28;20088;-44
2022/11/11 07:23:22;;;;;;;9.70;1.73;;;;;;;15.23;78.76;100397.13;5007742;28;20156;-43
2022/11/11 07:25:48;;;;;;;11.07;2.97;;;;;;;15.25;78.70;100408.69;5004010;28;20426;-43
2022/11/11 07:28:15;;;;;;;8.18;1.65;;;;;;;15.25;78.70;100410.69;5000427;28;20512;-43
2022/11/11 07:30:42;;;;;;;7.43;1.88;;;;;;;15.27;78.65;100424.25;5008501;28;20057;-44
2022/11/11 07:33:08;;;;;;;14.23;4.38;;;;;;;15.27;78.69;100418.69;5010896;28;20048;-45
2022/11/11 07:35:35;;;;;;;12.93;2.90;;;;;;;15.27;78.62;100441.00;5012611;28;20065;-44
2022/11/11 07:38:02;;;;;;;5.75;1.50;;;;;;;15.27;78.70;100409.09;5012425;28;20038;-43
2022/11/11 07:40:29;;;;;;;8.27;3.05;;;;;;;15.30;78.57;100440.22;5011102;28;20070;-45
2022/11/11 07:42:55;;;;;;;12.93;2.53;;;;;;;15.30;78.40;100429.06;5020904;28;20057;-44
2022/11/11 07:45:22;;;;;;;7.68;2.47;;;;;;;15.30;78.35;100431.84;5012762;28;20403;-46
2022/11/11 07:47:49;;;;;;;5.57;1.58;;;;;;;15.29;77.98;100421.88;5012153;28;20564;-45
2022/11/11 07:50:15;;;;;;;6.90;1.48;;;;;;;15.29;78.02;100441.41;4993348;28;20226;-45
2022/11/11 07:52:47;;;;;;;8.32;2.10;;;;;;;15.29;78.03;100438.63;5010305;28;20052;-47
2022/11/11 07:55:14;;;;;;;9.85;1.98;;;;;;;15.30;78.01;100440.22;5012475;28;20057;-44
2022/11/11 07:57:40;;;;;;;7.90;1.67;;;;;;;15.31;78.18;100452.97;5011988;28;20060;-44
2022/11/11 08:00:08;;;;;;;14.77;3.75;;;;;;;15.31;78.39;100453.78;5021632;28;20054;-44
2022/11/11 08:02:34;;;;;;;11.68;2.28;;;;;;;15.30;78.57;100485.66;5010463;28;20058;-44
2022/11/11 08:05:01;;;;;;;8.27;1.90;;;;;;;15.28;78.83;100488.00;5008209;28;20833;-44
2022/11/11 08:07:28;;;;;;;8.35;1.70;;;;;;;15.27;79.03;100492.78;5006961;28;20068;-44
2022/11/11 08:09:55;;;;;;;11.07;2.03;;;;;;;15.27;79.44;100498.34;5002105;28;20049;-52
2022/11/11 08:15:07;;;;;;;6.20;1.33;;;;;;;15.27;79.76;100523.47;5010504;28;20049;-44
2022/11/11 08:17:38;;;;;;;9.77;1.77;;;;;;;15.27;79.87;100525.47;5009399;28;20092;-50
2022/11/11 08:20:09;;;;;;;6.45;1.63;;;;;;;15.25;80.07;100522.25;5011099;28;20049;-44
2022/11/11 08:22:37;;;;;;;10.15;1.08;;;;;;;15.24;80.40;100537.38;5004847;28;20054;-46
2022/11/11 08:25:10;;;;;;;8.15;1.98;;;;;;;15.22;80.43;100511.88;5011741;28;20054;-47
2022/11/11 08:27:37;;;;;;;15.82;2.55;;;;;;;15.21;80.72;100527.00;5011840;28;20061;-44
2022/11/11 08:30:06;;;;;;;17.10;2.75;;;;;;;15.19;80.93;100523.78;5009865;28;20056;-45
2022/11/11 08:32:33;;;;;;;10.35;1.98;;;;;;;15.18;81.30;100544.47;5007987;28;20707;-49
2022/11/11 08:35:00;;;;;;;10.05;1.73;;;;;;;15.18;81.12;100534.13;5005466;28;20050;-44
2022/11/11 08:37:27;;;;;;;5.82;1.58;;;;;;;15.18;81.20;100534.13;5007273;28;20058;-45
2022/11/11 08:39:54;;;;;;;8.45;1.30;;;;;;;15.19;81.23;100523.78;4997361;28;20089;-46
2022/11/11 08:42:20;;;;;;;10.10;1.88;;;;;;;15.18;81.37;100545.28;5007291;28;20057;-45
2022/11/11 08:44:48;;;;;;;14.63;2.45;;;;;;;15.19;81.38;100541.31;5005727;28;20042;-45
